Aeroporto :
LOGIN :

Iscrizione | Disclaimer

   EN    FR    IT 

 










Sommario :    VFR   VFR Marginale   IFR   IFR Intensivo   IFR Molto Intensivo
Visibilità : 
Base nubi : 
>= 8 km
>= 3000ft
5 / 8 km
1000 / 3000 ft
1500m / 5 km
500 / 1000 ft
800 / 1500m
200 / 500 ft
< 800m
< 200 ft
Simboli :   Temporali  Nebbia  Neve Forte  Precipitazioni Forti  Vento > 20 kt
SIGMETs :   Varie  Temporali  Ghiacco  Turbolenza  Onda orograficha  Ceneri Vulcaniche






- Altitudine del aeroporto : -15 ft
- Codice IATA : RTM


EHRD - Rotterdam Zestienhoven

ULTIMO METAR :
  • 241925Z AUTO 16009KT 130V200 9999 NSC 08/05 Q1017 NOSIG

METARs OBSOLETI :
  • 241855Z AUTO 16009KT 130V190 9999 NSC 08/05 Q1017 NOSIG
  • 241825Z AUTO 16008KT 9999 NSC 08/05 Q1017 NOSIG
  • 241755Z AUTO 18009KT 150V220 9999 NSC 09/05 Q1018 NOSIG
  • 241725Z AUTO 17010KT 9999 NSC 09/06 Q1018 NOSIG
  • 241655Z AUTO 15007KT 9999 NSC 09/06 Q1018 NOSIG

TAF TAF EHRD
Valido dal 24 a 18 ore il 26 a 00 ore UTC


241715Z 2418/2524 17010KT CAVOK
BECMG 2508/2511 20010KT FEW018
TEMPO 2512/2524 BKN014



MetMap, La meteo Aeronautica in un colpo d'occhio ! - Copyright ORBIFLY Dicembre 2007 - Disclaimer

ORBIFLY MET'MAP TEAM :

Programmazione e sviluppo : Alexandra Zaïnal
Concezione : Baudouin d'Aumeries
Aiuto per la programmazione : Marc-Olivier Méhu
Supporto tecnico e logistico : Manuel Goepfert
Aiuto per la traduzione : Arnaldo La Scala

Contatto : metmap@orbifly.com




FONTI E CREDITI :

   NOAA